Time;durP1;ratioP1;P1;durP2;ratioP2;P2;SDS_P1;SDS_P2;PMS_P1;PMS_P2;Temp;Humidity;BMP_temperature;BMP_pressure;BME280_temperature;BME280_humidity;BME280_pressure;Samples;Min_cycle;Max_cycle;Signal;HPM_P1;HPM_P2
2022/04/06 00:00:24;;;;;;;2.37;2.17;;;;;;;9.39;90.43;94808.66;4359238;32;20212;-54
2022/04/06 00:02:49;;;;;;;2.20;2.10;;;;;;;9.47;89.97;94812.47;4344776;32;20181;-53
2022/04/06 00:05:15;;;;;;;2.50;2.33;;;;;;;9.53;89.86;94809.44;4358585;32;20189;-53
2022/04/06 00:07:41;;;;;;;2.10;2.00;;;;;;;9.44;89.78;94800.63;4366569;32;20200;-53
2022/04/06 00:10:08;;;;;;;2.37;2.23;;;;;;;9.52;89.88;94802.56;4358657;32;20231;-55
2022/04/06 00:12:35;;;;;;;2.43;2.33;;;;;;;9.33;90.13;94801.94;4368515;32;20311;-54
2022/04/06 00:15:01;;;;;;;2.63;2.43;;;;;;;9.44;90.25;94799.81;4351366;32;20308;-54
2022/04/06 00:17:27;;;;;;;2.30;2.10;;;;;;;9.41;90.25;94798.56;4369902;32;20288;-54
2022/04/06 00:19:53;;;;;;;2.40;2.30;;;;;;;9.52;89.57;94799.91;4354295;32;20181;-54
2022/04/06 00:22:19;;;;;;;2.40;2.30;;;;;;;9.51;89.56;94797.56;4360307;32;20277;-54
2022/04/06 00:24:44;;;;;;;2.20;2.10;;;;;;;9.43;89.85;94806.19;4347996;32;20308;-55
2022/04/06 00:27:09;;;;;;;2.40;2.30;;;;;;;9.46;89.86;94792.38;4367696;32;20185;-53
2022/04/06 00:29:35;;;;;;;2.93;2.73;;;;;;;9.49;89.78;94795.22;4354171;32;20252;-54
2022/04/06 00:32:00;;;;;;;2.03;1.93;;;;;;;9.35;89.99;94796.34;4353909;32;20181;-54
2022/04/06 00:37:09;;;;;;;2.63;2.53;;;;;;;9.45;89.74;94796.09;4360917;32;20215;-55
2022/04/06 00:39:35;;;;;;;2.40;2.30;;;;;;;9.46;89.56;94795.03;4350265;32;20309;-54
2022/04/06 00:42:00;;;;;;;2.80;2.60;;;;;;;9.52;89.60;94793.84;4345873;32;20223;-55
2022/04/06 00:44:28;;;;;;;2.90;2.70;;;;;;;9.60;89.11;94791.25;4346099;32;20283;-53
2022/04/06 00:46:53;;;;;;;2.67;2.57;;;;;;;9.59;88.56;94794.97;4348185;32;20191;-55
2022/04/06 00:49:18;;;;;;;2.80;2.60;;;;;;;9.59;88.82;94797.63;4342795;32;20304;-57
2022/04/06 00:51:48;;;;;;;3.00;2.70;;;;;;;9.62;88.71;94783.78;4359123;32;20233;-57
2022/04/06 00:54:15;;;;;;;4.03;2.70;;;;;;;9.59;88.83;94786.25;4346780;32;20212;-56
2022/04/06 00:56:42;;;;;;;2.57;2.40;;;;;;;9.42;89.58;94784.25;4360803;32;20292;-54
2022/04/06 00:59:09;;;;;;;2.73;2.63;;;;;;;9.46;89.28;94779.13;4359752;32;20280;-55
2022/04/06 01:01:35;;;;;;;2.80;2.60;;;;;;;9.56;89.13;94779.69;4346583;32;20293;-54
2022/04/06 01:04:01;;;;;;;5.10;3.30;;;;;;;9.43;89.28;94777.88;4360360;32;20303;-55
2022/04/06 01:06:27;;;;;;;2.90;2.70;;;;;;;9.51;89.19;94782.47;4362836;32;20296;-56
2022/04/06 01:08:53;;;;;;;2.60;2.50;;;;;;;9.49;89.07;94776.69;4354798;32;20235;-53
2022/04/06 01:11:20;;;;;;;3.00;2.80;;;;;;;9.59;88.37;94773.78;4359581;32;20195;-57
2022/04/06 01:13:46;;;;;;;2.47;2.37;;;;;;;9.58;88.54;94780.16;4346205;32;20185;-54
2022/04/06 01:16:17;;;;;;;2.97;2.77;;;;;;;9.63;88.37;94780.06;4360417;32;20328;-53
2022/04/06 01:18:43;;;;;;;3.03;2.83;;;;;;;9.53;88.65;94774.22;4349035;32;20334;-56
2022/04/06 01:21:15;;;;;;;3.20;3.00;;;;;;;9.50;89.09;94769.53;4360525;32;20365;-55
2022/04/06 01:23:44;;;;;;;2.90;2.77;;;;;;;9.55;89.18;94766.75;4360253;32;20188;-53
2022/04/06 01:26:13;;;;;;;2.97;2.77;;;;;;;9.38;89.55;94772.69;4360370;32;20303;-56
2022/04/06 01:28:40;;;;;;;3.00;2.80;;;;;;;9.46;89.30;94769.31;4358241;32;20276;-55
2022/04/06 01:31:10;;;;;;;4.93;3.23;;;;;;;9.56;88.56;94763.78;4349167;32;20324;-54
2022/04/06 01:33:36;;;;;;;2.57;2.37;;;;;;;9.52;88.58;94759.41;4348721;32;20276;-52
2022/04/06 01:36:01;;;;;;;2.80;2.60;;;;;;;9.67;88.38;94764.34;4357460;32;20395;-51
2022/04/06 01:38:27;;;;;;;3.27;3.07;;;;;;;9.58;88.42;94766.91;4345913;32;20244;-53
2022/04/06 01:40:53;;;;;;;3.20;3.00;;;;;;;9.57;88.78;94765.34;4360313;32;20189;-55
2022/04/06 01:43:19;;;;;;;2.93;2.73;;;;;;;9.45;89.22;94764.34;4368810;32;20200;-54
2022/04/06 01:45:44;;;;;;;2.97;2.77;;;;;;;9.46;89.12;94763.25;4362930;32;20200;-56
2022/04/06 01:48:09;;;;;;;3.10;2.90;;;;;;;9.60;88.67;94759.47;4368794;32;20188;-55
2022/04/06 01:53:35;;;;;;;3.87;2.77;;;;;;;9.59;88.44;94757.91;4343473;32;20186;-49
2022/04/06 01:56:00;;;;;;;2.83;2.63;;;;;;;9.56;88.16;94747.91;4345424;32;20390;-54
2022/04/06 01:58:26;;;;;;;3.30;3.10;;;;;;;9.50;88.34;94745.69;4373945;32;20184;-53
2022/04/06 02:00:52;;;;;;;3.27;3.03;;;;;;;9.64;87.97;94749.84;4362757;32;20220;-52
2022/04/06 02:03:17;;;;;;;3.10;2.90;;;;;;;9.61;87.89;94747.78;4363438;32;20240;-50
2022/04/06 02:05:43;;;;;;;3.77;2.83;;;;;;;9.67;87.81;94743.16;4359841;32;20197;-54
2022/04/06 02:08:08;;;;;;;3.23;2.63;;;;;;;9.70;87.81;94747.06;4362877;32;20193;-53
2022/04/06 02:10:34;;;;;;;3.43;3.13;;;;;;;9.61;87.79;94737.19;4361399;32;20193;-54
2022/04/06 02:12:59;;;;;;;3.90;3.37;;;;;;;9.56;88.20;94745.25;4366230;32;20266;-54
2022/04/06 02:15:27;;;;;;;4.00;3.70;;;;;;;9.64;87.97;94741.91;4360227;32;20224;-54
2022/04/06 02:17:53;;;;;;;3.13;2.93;;;;;;;9.59;88.07;94736.72;4368215;32;20228;-54
2022/04/06 02:20:19;;;;;;;4.90;2.97;;;;;;;9.53;88.25;94730.00;4360943;32;20289;-54
2022/04/06 02:22:44;;;;;;;3.43;3.17;;;;;;;9.69;87.65;94729.63;4346018;32;20348;-55
2022/04/06 02:25:12;;;;;;;3.57;3.03;;;;;;;9.58;88.13;94729.84;4341767;32;20181;-56
2022/04/06 02:27:49;;;;;;;3.57;3.27;;;;;;;9.71;87.80;94730.09;4367663;32;20193;-55
2022/04/06 02:30:15;;;;;;;3.97;3.53;;;;;;;9.62;88.01;94730.03;4357978;32;20308;-52
2022/04/06 02:32:40;;;;;;;2.97;2.77;;;;;;;9.59;87.98;94742.00;4367654;32;20321;-54
2022/04/06 02:35:06;;;;;;;3.00;2.80;;;;;;;9.49;88.56;94733.53;4367802;32;20289;-54
2022/04/06 02:37:32;;;;;;;2.80;2.60;;;;;;;9.59;88.43;94734.06;4357172;32;20276;-55
2022/04/06 02:39:57;;;;;;;3.33;3.13;;;;;;;9.62;88.34;94727.37;4357901;32;20363;-57
2022/04/06 02:42:23;;;;;;;3.07;2.87;;;;;;;9.57;88.35;94728.28;4366731;32;20215;-56
2022/04/06 02:44:48;;;;;;;2.90;2.80;;;;;;;9.64;88.46;94731.31;4358269;32;20212;-56
2022/04/06 02:47:13;;;;;;;2.90;2.77;;;;;;;9.66;88.20;94723.06;4360466;32;20197;-54
2022/04/06 02:49:39;;;;;;;3.20;2.90;;;;;;;9.60;88.68;94719.75;4360279;32;20200;-54
2022/04/06 02:52:05;;;;;;;3.43;3.13;;;;;;;9.68;88.37;94709.53;4357785;32;20193;-56
2022/04/06 02:54:30;;;;;;;3.13;2.93;;;;;;;9.65;88.36;94713.56;4358512;32;20193;-56
2022/04/06 02:56:55;;;;;;;2.83;2.47;;;;;;;9.53;88.82;94710.69;4361768;32;20241;-54
2022/04/06 02:59:21;;;;;;;3.33;3.13;;;;;;;9.56;88.71;94699.50;4362592;32;20192;-53
2022/04/06 03:01:46;;;;;;;2.60;2.50;;;;;;;9.58;88.51;94695.44;4359711;32;20232;-55
2022/04/06 03:04:11;;;;;;;2.50;2.40;;;;;;;9.61;88.33;94700.12;4363091;32;20223;-52
2022/04/06 03:06:37;;;;;;;2.20;2.10;;;;;;;9.72;88.33;94702.53;4365058;32;20205;-55
2022/04/06 03:09:02;;;;;;;2.77;2.67;;;;;;;9.69;88.46;94698.63;4353584;32;20194;-55
2022/04/06 03:11:28;;;;;;;3.00;2.80;;;;;;;9.59;88.76;94698.84;4352245;32;20201;-52
2022/04/06 03:13:53;;;;;;;2.40;2.20;;;;;;;9.68;88.50;94701.56;4363884;32;20185;-54
2022/04/06 03:16:18;;;;;;;2.63;2.43;;;;;;;9.60;88.66;94684.53;4360013;32;20201;-53
2022/04/06 03:18:44;;;;;;;2.30;2.10;;;;;;;9.59;88.81;94689.06;4356211;32;20208;-55
2022/04/06 03:21:15;;;;;;;2.20;2.10;;;;;;;9.54;89.08;94683.91;4346768;32;20560;-54
2022/04/06 03:23:40;;;;;;;3.73;2.57;;;;;;;9.37;89.63;94681.13;4359661;32;20207;-53
2022/04/06 03:26:12;;;;;;;1.83;1.73;;;;;;;9.56;89.06;94689.66;4360604;32;20290;-51
2022/04/06 03:28:38;;;;;;;1.80;1.70;;;;;;;9.68;88.83;94686.47;4352992;32;20215;-56
2022/04/06 03:31:11;;;;;;;2.13;2.00;;;;;;;9.55;89.10;94684.69;4361537;32;20289;-54
2022/04/06 03:33:36;;;;;;;1.73;1.63;;;;;;;9.52;89.56;94678.12;4348377;32;20275;-53
2022/04/06 03:36:02;;;;;;;2.10;2.00;;;;;;;9.61;89.19;94686.88;4347365;32;20359;-56
2022/04/06 03:38:28;;;;;;;2.03;1.93;;;;;;;9.54;89.61;94685.75;4337331;32;20220;-53
2022/04/06 03:40:53;;;;;;;1.73;1.63;;;;;;;9.55;89.76;94688.13;4338304;32;20348;-51
2022/04/06 03:43:18;;;;;;;2.03;1.83;;;;;;;9.50;89.95;94684.81;4356360;32;20184;-53
2022/04/06 03:45:44;;;;;;;1.90;1.80;;;;;;;9.35;90.37;94688.59;4347236;32;20189;-56
2022/04/06 03:48:09;;;;;;;1.77;1.67;;;;;;;9.33;90.70;94682.03;4347781;32;20185;-55
2022/04/06 03:50:35;;;;;;;1.97;1.73;;;;;;;9.43;90.15;94679.91;4348321;32;20188;-56
2022/04/06 03:53:00;;;;;;;1.90;1.80;;;;;;;9.39;90.13;94681.59;4361157;32;20248;-50
2022/04/06 03:55:25;;;;;;;2.33;2.17;;;;;;;9.25;90.62;94686.19;4365454;32;20185;-55
2022/04/06 03:57:51;;;;;;;2.03;1.83;;;;;;;9.27;90.58;94676.06;4355294;32;20197;-54
2022/04/06 04:00:17;;;;;;;2.00;1.90;;;;;;;9.22;90.79;94676.19;4364839;32;20234;-55
2022/04/06 04:02:43;;;;;;;1.70;1.60;;;;;;;9.14;91.33;94668.97;4359491;32;20254;-53
2022/04/06 04:05:09;;;;;;;1.67;1.57;;;;;;;9.08;91.45;94662.22;4347340;32;20285;-52
2022/04/06 04:07:37;;;;;;;2.37;2.07;;;;;;;9.06;91.79;94664.38;4357596;32;20244;-55
2022/04/06 04:10:08;;;;;;;1.90;1.80;;;;;;;9.13;91.12;94656.84;4346773;32;20185;-56
2022/04/06 04:12:34;;;;;;;2.30;2.20;;;;;;;9.08;91.27;94662.22;4358629;32;20281;-54
2022/04/06 04:15:00;;;;;;;1.93;1.83;;;;;;;9.09;91.34;94661.94;4356438;32;20359;-53
2022/04/06 04:17:25;;;;;;;1.73;1.63;;;;;;;9.10;91.51;94654.78;4357527;32;20332;-53
2022/04/06 04:19:51;;;;;;;2.20;2.10;;;;;;;9.10;91.51;94660.06;4359892;32;20210;-53
2022/04/06 04:22:16;;;;;;;2.60;1.77;;;;;;;9.26;90.91;94650.69;4358880;32;20197;-53
2022/04/06 04:24:41;;;;;;;2.33;2.13;;;;;;;9.15;91.53;94657.28;4360704;32;20419;-55
2022/04/06 04:27:07;;;;;;;2.20;2.10;;;;;;;9.22;91.37;94655.00;4346751;32;20189;-55
2022/04/06 04:29:32;;;;;;;2.03;1.93;;;;;;;9.29;91.01;94648.22;4345864;32;20193;-54
2022/04/06 04:31:58;;;;;;;1.90;1.80;;;;;;;9.24;91.31;94652.84;4348604;32;20218;-53
2022/04/06 04:34:23;;;;;;;1.87;1.77;;;;;;;9.23;91.50;94651.28;4356601;32;20190;-54
2022/04/06 04:36:48;;;;;;;2.03;1.93;;;;;;;9.26;91.24;94651.47;4354467;32;20241;-52
2022/04/06 04:39:14;;;;;;;3.20;1.67;;;;;;;9.32;91.36;94646.84;4353493;32;20242;-55
2022/04/06 04:41:40;;;;;;;1.97;1.70;;;;;;;9.30;91.46;94649.78;4355341;32;20203;-55
2022/04/06 04:44:05;;;;;;;1.53;1.43;;;;;;;9.30;91.34;94660.38;4354973;32;20210;-54
2022/04/06 04:46:30;;;;;;;1.93;1.73;;;;;;;9.30;91.19;94657.72;4357240;32;20185;-56
2022/04/06 04:48:56;;;;;;;1.97;1.77;;;;;;;9.31;91.27;94663.81;4346754;32;20200;-56
2022/04/06 04:51:21;;;;;;;2.17;1.70;;;;;;;9.34;91.53;94651.84;4346546;32;20236;-55
2022/04/06 04:53:46;;;;;;;1.50;1.40;;;;;;;9.32;91.51;94657.44;4366529;32;20193;-55
2022/04/06 04:56:16;;;;;;;1.73;1.63;;;;;;;9.27;91.51;94657.53;4364644;32;20240;-64
2022/04/06 04:58:41;;;;;;;1.80;1.70;;;;;;;9.27;91.39;94653.03;4360747;32;20198;-55
2022/04/06 05:01:08;;;;;;;1.77;1.67;;;;;;;9.40;91.11;94659.34;4358184;32;20311;-55
2022/04/06 05:03:33;;;;;;;2.00;1.60;;;;;;;9.45;90.93;94659.22;4357758;32;20197;-50
2022/04/06 05:05:59;;;;;;;2.03;1.83;;;;;;;9.45;90.61;94661.88;4360088;32;20303;-55
2022/04/06 05:08:24;;;;;;;2.90;1.60;;;;;;;9.37;91.08;94657.28;4357127;32;20201;-56
2022/04/06 05:10:49;;;;;;;1.57;1.47;;;;;;;9.52;90.46;94653.50;4368192;32;20200;-56
2022/04/06 05:13:17;;;;;;;2.13;1.93;;;;;;;9.55;89.92;94660.84;4366735;32;20254;-56
2022/04/06 05:15:46;;;;;;;1.87;1.77;;;;;;;9.60;90.05;94658.84;4365998;32;20251;-56
2022/04/06 05:18:11;;;;;;;1.83;1.73;;;;;;;9.48;90.70;94655.97;4343036;32;20289;-53
2022/04/06 05:20:37;;;;;;;1.90;1.80;;;;;;;9.46;91.13;94665.31;4369383;32;20321;-54
2022/04/06 05:23:02;;;;;;;1.80;1.70;;;;;;;9.46;91.66;94663.44;4358592;32;20276;-57
2022/04/06 05:25:27;;;;;;;3.90;1.50;;;;;;;9.35;92.44;94671.94;4346986;32;20216;-54
2022/04/06 05:27:54;;;;;;;2.00;1.80;;;;;;;9.42;92.42;94670.41;4367142;32;20232;-55
2022/04/06 05:30:23;;;;;;;5.27;1.97;;;;;;;9.46;92.24;94670.59;4360792;32;20185;-54
2022/04/06 05:32:51;;;;;;;2.97;1.73;;;;;;;9.58;91.66;94671.59;4339210;33;20349;-56
2022/04/06 05:35:18;;;;;;;3.53;3.23;;;;;;;9.42;92.30;94667.75;4357889;32;20223;-54
2022/04/06 05:37:45;;;;;;;3.00;2.50;;;;;;;9.48;91.78;94663.91;4348907;32;20324;-55
2022/04/06 05:40:13;;;;;;;2.90;2.70;;;;;;;9.64;91.11;94669.62;4367687;32;20296;-55
2022/04/06 05:42:38;;;;;;;3.07;2.87;;;;;;;9.79;90.73;94663.13;4359112;32;20300;-52
2022/04/06 05:45:06;;;;;;;3.00;2.77;;;;;;;9.62;91.07;94671.78;4367376;32;20278;-57
2022/04/06 05:47:32;;;;;;;2.90;2.60;;;;;;;9.71;90.62;94666.53;4359838;32;20204;-54
2022/04/06 05:49:57;;;;;;;2.83;2.30;;;;;;;9.70;90.76;94662.34;4354057;32;20185;-56
2022/04/06 05:52:23;;;;;;;2.60;2.40;;;;;;;9.70;90.53;94665.75;4359154;32;20254;-54
2022/04/06 05:54:48;;;;;;;2.60;2.40;;;;;;;9.71;90.78;94669.97;4363833;32;20241;-54
2022/04/06 05:57:13;;;;;;;2.97;2.77;;;;;;;9.69;91.11;94672.13;4357681;32;20251;-55
2022/04/06 05:59:40;;;;;;;4.03;2.40;;;;;;;9.67;91.06;94668.22;4358298;32;20193;-56
2022/04/06 06:02:07;;;;;;;3.70;2.37;;;;;;;9.65;91.78;94671.19;4359786;32;20199;-53
2022/04/06 06:04:33;;;;;;;4.60;2.90;;;;;;;9.65;91.93;94665.87;4353116;32;20249;-52
2022/04/06 06:06:58;;;;;;;2.40;2.17;;;;;;;9.69;91.67;94671.34;4358357;32;20297;-56
2022/04/06 06:09:24;;;;;;;2.40;2.20;;;;;;;9.62;91.96;94664.63;4359404;32;20296;-53
2022/04/06 06:11:49;;;;;;;3.07;2.70;;;;;;;9.86;91.28;94661.62;4356694;32;20203;-55
2022/04/06 06:14:14;;;;;;;3.27;2.97;;;;;;;9.76;91.82;94667.22;4360860;32;20181;-54
2022/04/06 06:16:40;;;;;;;6.70;2.43;;;;;;;9.88;91.25;94664.75;4346717;32;20189;-56
2022/04/06 06:19:05;;;;;;;2.90;2.70;;;;;;;9.73;91.62;94664.38;4352794;32;20203;-54
2022/04/06 06:21:32;;;;;;;2.50;2.17;;;;;;;9.85;91.04;94659.28;4356094;32;20196;-57
2022/04/06 06:24:05;;;;;;;2.60;2.40;;;;;;;9.88;91.20;94667.41;4347304;32;20220;-56
2022/04/06 06:26:35;;;;;;;3.80;2.20;;;;;;;9.95;90.73;94667.75;4344450;32;20204;-56
2022/04/06 06:29:01;;;;;;;2.67;2.47;;;;;;;9.92;90.36;94665.72;4340811;32;20215;-55
2022/04/06 06:31:30;;;;;;;2.70;2.50;;;;;;;10.05;90.64;94668.56;4360954;32;20285;-56
2022/04/06 06:33:56;;;;;;;83.80;10.80;;;;;;;10.04;90.29;94667.00;4362561;32;20197;-43
2022/04/06 06:36:23;;;;;;;22.83;2.97;;;;;;;10.57;94.64;94670.34;4347246;32;20320;-42
2022/04/06 06:38:48;;;;;;;11.27;2.50;;;;;;;12.14;94.27;94672.59;4348902;32;20177;-42
2022/04/06 06:41:14;;;;;;;8.50;2.00;;;;;;;12.89;86.43;94657.63;4361688;32;20234;-41
2022/04/06 06:43:39;;;;;;;2.63;2.00;;;;;;;13.20;82.21;94667.94;4355171;32;20193;-42
2022/04/06 06:46:10;;;;;;;1.70;1.60;;;;;;;13.74;77.86;94667.94;4352902;32;20200;-42
2022/04/06 06:48:36;;;;;;;2.00;1.90;;;;;;;14.03;74.83;94667.78;4358788;32;20237;-42
2022/04/06 06:51:12;;;;;;;7.50;1.70;;;;;;;14.18;73.45;94665.56;4355523;32;20257;-41
2022/04/06 06:53:38;;;;;;;1.57;1.47;;;;;;;14.28;72.40;94665.94;4340628;32;20196;-41
2022/04/06 06:56:10;;;;;;;1.63;1.53;;;;;;;14.51;71.26;94660.97;4347820;32;20239;-42
2022/04/06 06:58:35;;;;;;;5.53;1.87;;;;;;;14.31;70.54;94654.59;4361886;32;20189;-42
2022/04/06 07:01:01;;;;;;;8.53;1.93;;;;;;;14.68;71.81;94662.62;4347050;32;20233;-42
2022/04/06 07:03:27;;;;;;;1.47;1.37;;;;;;;14.87;70.49;94654.03;4338756;32;20210;-56
2022/04/06 07:05:52;;;;;;;1.67;1.57;;;;;;;14.00;70.54;94655.09;4339874;32;20188;-58
2022/04/06 07:08:18;;;;;;;1.70;1.60;;;;;;;13.08;74.23;94651.88;4350864;32;20194;-59
2022/04/06 07:10:45;;;;;;;2.60;2.40;;;;;;;12.79;75.21;94655.38;4341419;32;20228;-58
2022/04/06 07:13:15;;;;;;;2.63;2.00;;;;;;;12.20;77.75;94666.00;4352180;32;20185;-58
2022/04/06 07:15:40;;;;;;;1.93;1.83;;;;;;;12.01;78.26;94657.63;4353029;32;20268;-58
2022/04/06 07:18:08;;;;;;;7.80;2.30;;;;;;;11.58;80.37;94650.53;4347194;32;20190;-58
2022/04/06 07:20:35;;;;;;;3.17;2.20;;;;;;;11.41;81.70;94647.91;4348744;32;20211;-58
2022/04/06 07:23:01;;;;;;;2.00;1.90;;;;;;;11.42;81.43;94646.81;4353076;32;20264;-57
2022/04/06 07:25:27;;;;;;;4.47;1.70;;;;;;;11.51;81.01;94654.75;4352871;32;20207;-58
2022/04/06 07:27:52;;;;;;;1.90;1.80;;;;;;;11.40;81.96;94654.31;4335258;32;20233;-57
2022/04/06 07:30:18;;;;;;;2.00;1.90;;;;;;;11.49;81.43;94647.09;4346074;32;20184;-56
2022/04/06 07:32:43;;;;;;;1.87;1.77;;;;;;;11.27;82.50;94645.41;4344585;32;20232;-57
2022/04/06 07:35:09;;;;;;;2.00;1.90;;;;;;;11.31;82.31;94645.56;4347947;32;20207;-58
2022/04/06 07:37:48;;;;;;;1.90;1.80;;;;;;;11.38;82.94;94650.41;4350921;32;20201;-57
2022/04/06 07:40:16;;;;;;;2.53;2.10;;;;;;;11.39;82.47;94647.44;4350090;32;20236;-58
2022/04/06 07:42:42;;;;;;;2.40;2.17;;;;;;;11.56;81.71;94643.97;4353070;32;20189;-58
2022/04/06 07:45:09;;;;;;;1.97;1.87;;;;;;;11.48;82.24;94634.91;4349819;32;20196;-55
2022/04/06 07:47:37;;;;;;;2.17;2.07;;;;;;;11.46;81.84;94634.44;4352684;32;20211;-58
2022/04/06 07:50:04;;;;;;;2.90;2.70;;;;;;;11.53;81.15;94637.41;4351989;32;20292;-57
2022/04/06 07:52:30;;;;;;;2.80;2.40;;;;;;;11.34;81.68;94639.62;4351055;32;20220;-58
2022/04/06 07:54:56;;;;;;;2.47;2.33;;;;;;;11.31;82.37;94634.94;4347075;32;20233;-58
2022/04/06 07:57:26;;;;;;;2.97;2.77;;;;;;;11.45;81.74;94638.19;4325016;32;20205;-57
2022/04/06 07:59:52;;;;;;;3.27;3.07;;;;;;;11.51;81.41;94636.94;4347400;32;20184;-58
2022/04/06 08:02:18;;;;;;;5.43;2.30;;;;;;;11.54;80.32;94638.97;4339194;32;20208;-41
2022/04/06 08:04:43;;;;;;;3.30;2.13;;;;;;;12.13;86.61;94633.03;4337200;32;20239;-43
2022/04/06 08:07:09;;;;;;;2.80;2.70;;;;;;;14.31;78.39;94630.59;4354628;32;20220;-62
2022/04/06 08:09:34;;;;;;;3.40;2.97;;;;;;;15.10;68.15;94631.84;4338728;32;20185;-58
2022/04/06 08:12:01;;;;;;;3.03;2.83;;;;;;;14.07;69.63;94627.91;4339259;32;20191;-57
2022/04/06 08:14:27;;;;;;;3.77;3.20;;;;;;;13.43;72.21;94631.09;4330633;32;20223;-58
2022/04/06 08:16:52;;;;;;;3.27;2.97;;;;;;;13.31;73.06;94626.47;4345975;32;20193;-55
2022/04/06 08:19:17;;;;;;;3.00;2.80;;;;;;;12.96;74.17;94614.53;4338686;32;20243;-58
2022/04/06 08:21:43;;;;;;;3.57;3.23;;;;;;;12.82;74.81;94611.34;4350504;32;20243;-59
2022/04/06 08:24:08;;;;;;;3.87;3.50;;;;;;;12.78;75.34;94611.22;4343935;32;20199;-59
2022/04/06 08:26:34;;;;;;;3.43;3.23;;;;;;;12.63;75.94;94609.91;4343257;32;20203;-54
2022/04/06 08:28:59;;;;;;;5.40;3.33;;;;;;;12.65;75.89;94614.91;4340815;32;20208;-53
2022/04/06 08:31:25;;;;;;;3.33;3.13;;;;;;;12.58;76.80;94618.09;4345389;32;20185;-58
2022/04/06 08:33:51;;;;;;;3.60;3.40;;;;;;;12.74;76.25;94623.59;4348605;32;20189;-55
2022/04/06 08:36:17;;;;;;;3.43;3.23;;;;;;;12.79;76.07;94617.31;4351238;32;20189;-55
2022/04/06 08:38:43;;;;;;;3.97;3.57;;;;;;;12.83;76.23;94607.59;4350199;32;20229;-57
2022/04/06 08:41:11;;;;;;;3.60;3.10;;;;;;;12.76;75.54;94613.41;4351198;32;20177;-58
2022/04/06 08:43:37;;;;;;;3.40;3.17;;;;;;;12.76;75.75;94613.41;4351158;32;20188;-58
2022/04/06 08:46:02;;;;;;;3.50;3.20;;;;;;;12.74;76.00;94603.09;4350015;32;20273;-56
2022/04/06 08:48:31;;;;;;;3.90;3.60;;;;;;;12.95;75.48;94608.41;4351822;32;20197;-55
2022/04/06 08:50:59;;;;;;;3.73;3.50;;;;;;;12.85;75.94;94600.06;4350307;32;20189;-55
2022/04/06 08:53:25;;;;;;;3.60;3.30;;;;;;;12.91;76.49;94604.06;4338120;32;20192;-54
2022/04/06 08:55:50;;;;;;;6.10;3.50;;;;;;;12.94;76.21;94598.88;4351669;32;20189;-59
2022/04/06 08:58:15;;;;;;;4.57;4.17;;;;;;;12.88;75.97;94594.88;4345597;32;20193;-56
2022/04/06 09:00:41;;;;;;;5.03;3.40;;;;;;;12.99;75.26;94596.03;4339066;32;20211;-58
2022/04/06 09:03:07;;;;;;;3.63;3.33;;;;;;;13.03;74.96;94602.25;4335908;32;20192;-53
2022/04/06 09:05:34;;;;;;;3.77;3.53;;;;;;;13.14;74.14;94593.84;4351956;32;20283;-53
2022/04/06 09:08:01;;;;;;;3.40;3.10;;;;;;;13.04;74.34;94589.72;4350510;32;20222;-55
2022/04/06 09:10:29;;;;;;;3.70;3.50;;;;;;;13.15;73.76;94593.56;4338368;32;20189;-57
2022/04/06 09:13:15;;;;;;;3.97;3.77;;;;;;;13.18;74.07;94587.59;4348858;32;20189;-58
2022/04/06 09:15:42;;;;;;;3.50;3.20;;;;;;;13.22;73.92;94593.81;4355773;32;20196;-55
2022/04/06 09:18:08;;;;;;;3.70;3.43;;;;;;;13.33;72.94;94589.63;4345680;32;20193;-54
2022/04/06 09:20:33;;;;;;;4.10;3.23;;;;;;;13.45;72.44;94583.56;4346613;32;20315;-56
2022/04/06 09:23:03;;;;;;;3.20;2.80;;;;;;;13.33;72.67;94586.19;4338362;32;20253;-58
2022/04/06 09:25:35;;;;;;;3.30;3.10;;;;;;;13.39;72.47;94582.22;4339613;32;20197;-58
2022/04/06 09:28:11;;;;;;;2.90;2.80;;;;;;;13.38;72.44;94578.00;4342708;32;20189;-57
2022/04/06 09:30:46;;;;;;;3.33;3.07;;;;;;;13.39;72.46;94577.66;4352246;32;20235;-57
2022/04/06 09:33:16;;;;;;;3.60;3.27;;;;;;;13.35;71.24;94571.44;4350943;32;20221;-57
2022/04/06 09:35:43;;;;;;;3.37;3.17;;;;;;;13.52;71.47;94565.13;4331717;32;20201;-58
2022/04/06 09:38:12;;;;;;;3.20;3.03;;;;;;;13.37;71.18;94569.22;4345592;32;20212;-57
2022/04/06 09:40:39;;;;;;;3.63;3.33;;;;;;;13.32;71.61;94568.66;4336044;32;20177;-57
2022/04/06 09:43:04;;;;;;;3.40;3.10;;;;;;;13.45;71.98;94564.91;4339326;32;20230;-57
2022/04/06 09:48:14;;;;;;;3.00;2.90;;;;;;;13.54;71.05;94557.59;4340003;32;20263;-62
2022/04/06 09:50:42;;;;;;;3.63;3.03;;;;;;;13.65;69.94;94548.09;4335688;32;20189;-56
2022/04/06 09:53:07;;;;;;;2.87;2.77;;;;;;;13.77;70.11;94545.41;4340202;32;20201;-58
2022/04/06 09:55:33;;;;;;;2.90;2.70;;;;;;;13.90;68.13;94540.09;4347350;32;20268;-56
2022/04/06 09:58:03;;;;;;;3.00;2.90;;;;;;;14.02;68.47;94542.75;4340555;32;20201;-56
2022/04/06 10:00:30;;;;;;;3.37;3.07;;;;;;;14.00;68.09;94528.97;4352671;32;20196;-57
2022/04/06 10:03:08;;;;;;;3.80;2.63;;;;;;;14.20;69.17;94536.09;4350690;32;20255;-57
2022/04/06 10:05:35;;;;;;;3.13;2.93;;;;;;;14.35;67.80;94534.59;4326099;32;20189;-53
2022/04/06 10:08:02;;;;;;;2.97;2.80;;;;;;;14.25;68.04;94524.41;4338509;32;20182;-57
2022/04/06 10:10:28;;;;;;;5.80;4.03;;;;;;;14.30;67.77;94521.53;4353800;32;20211;-58
2022/04/06 10:12:53;;;;;;;3.10;2.90;;;;;;;14.31;66.97;94521.19;4351402;32;20228;-58
2022/04/06 10:15:19;;;;;;;3.17;2.97;;;;;;;14.46;67.43;94521.63;4352752;32;20189;-58
2022/04/06 10:17:44;;;;;;;4.07;2.97;;;;;;;14.48;65.57;94519.41;4339745;32;20232;-58
2022/04/06 10:20:31;;;;;;;3.07;2.87;;;;;;;14.34;65.71;94509.81;4355219;32;20184;-58
2022/04/06 10:23:05;;;;;;;2.97;2.77;;;;;;;14.28;66.59;94505.84;4354978;32;20188;-58
2022/04/06 10:25:36;;;;;;;2.80;2.60;;;;;;;14.30;66.26;94503.63;4354285;32;20193;-58
2022/04/06 10:28:09;;;;;;;3.10;2.90;;;;;;;14.22;66.93;94493.06;4346961;32;20181;-58
2022/04/06 10:30:34;;;;;;;2.77;2.63;;;;;;;14.30;66.96;94498.28;4339837;32;20181;-58
2022/04/06 10:32:59;;;;;;;2.80;2.60;;;;;;;14.29;67.26;94486.06;4348706;32;20192;-58
2022/04/06 10:35:26;;;;;;;2.50;2.30;;;;;;;14.35;66.81;94478.56;4349743;32;20217;-57
2022/04/06 10:38:13;;;;;;;2.80;2.30;;;;;;;14.27;65.50;94474.94;4347461;32;20220;-57
2022/04/06 10:40:45;;;;;;;2.20;2.00;;;;;;;14.41;64.23;94475.37;4342159;32;20177;-58
2022/04/06 10:43:40;;;;;;;3.87;2.83;;;;;;;14.48;64.78;94479.38;4340179;32;20192;-58
2022/04/06 10:46:32;;;;;;;2.77;1.97;;;;;;;14.50;63.94;94471.81;4340428;32;20184;-58
2022/04/06 10:49:07;;;;;;;4.33;2.17;;;;;;;14.52;64.25;94462.34;4349770;32;20212;-58
2022/04/06 10:51:35;;;;;;;2.67;2.33;;;;;;;14.52;64.74;94466.91;4352715;32;20181;-57
2022/04/06 10:54:12;;;;;;;2.93;2.40;;;;;;;14.57;63.23;94466.66;4351998;32;20192;-58
2022/04/06 10:56:46;;;;;;;2.53;2.33;;;;;;;14.65;63.22;94461.19;4351840;32;20193;-57
2022/04/06 10:59:19;;;;;;;2.37;2.27;;;;;;;14.71;63.86;94453.72;4343718;32;20184;-57
2022/04/06 11:01:48;;;;;;;2.20;2.10;;;;;;;14.66;63.04;94451.28;4337574;32;20247;-56
2022/04/06 11:04:20;;;;;;;2.10;2.00;;;;;;;14.61;62.67;94446.94;4336459;32;20243;-57
2022/04/06 11:06:49;;;;;;;2.70;1.80;;;;;;;14.68;63.25;94444.47;4336976;32;20208;-57
2022/04/06 11:12:13;;;;;;;1.80;1.70;;;;;;;14.39;62.31;94432.22;4350885;32;20247;-65
2022/04/06 11:14:40;;;;;;;3.07;1.50;;;;;;;14.45;63.20;94440.78;4352915;32;20211;-57
2022/04/06 11:20:00;;;;;;;2.00;1.90;;;;;;;14.92;60.93;94424.91;4346638;32;20192;-57
2022/04/06 11:22:26;;;;;;;2.13;1.83;;;;;;;14.91;61.46;94418.00;4351138;32;20241;-59
2022/04/06 11:28:13;;;;;;;4.87;1.40;;;;;;;15.96;69.57;94412.13;4333597;32;20212;-48
2022/04/06 11:30:43;;;;;;;2.00;1.33;;;;;;;18.39;58.95;94403.28;4342088;32;20260;-48
2022/04/06 11:33:08;;;;;;;1.50;1.23;;;;;;;19.18;53.73;94386.88;4337167;32;20236;-44
2022/04/06 11:35:36;;;;;;;1.80;1.50;;;;;;;19.32;51.65;94393.56;4336590;32;20181;-41
2022/04/06 11:38:06;;;;;;;1.60;1.50;;;;;;;19.90;49.51;94394.41;4349379;32;20189;-42
2022/04/06 11:40:32;;;;;;;1.00;1.00;;;;;;;19.56;49.62;94385.69;4348513;32;20197;-45
2022/04/06 11:43:00;;;;;;;1.70;1.60;;;;;;;20.05;48.39;94376.41;4351063;32;20209;-40
2022/04/06 11:45:40;;;;;;;1.73;1.63;;;;;;;19.80;46.68;94380.84;4321930;32;20197;-43
2022/04/06 11:48:07;;;;;;;1.53;1.33;;;;;;;20.06;47.71;94369.09;4322021;32;20279;-42
2022/04/06 11:50:35;;;;;;;1.93;1.23;;;;;;;20.29;47.51;94376.91;4334811;32;20287;-45
2022/04/06 11:53:04;;;;;;;1.43;1.33;;;;;;;20.13;47.67;94364.53;4349543;32;20189;-42
2022/04/06 11:56:01;;;;;;;1.10;1.10;;;;;;;20.06;48.68;94358.31;4342213;32;20214;-41